Senath, Missouri
Current Conditions -  °F | °C
As of 12:53 AM on Saturday 25 Oct 2014 (Local Time) from KHKA Reporting Station
Clear Clear  
Wind Chill: 57°   Ceiling: Unl
Heat Index: 57°   Visibility: 10mi
Dew Point: 55°   Wind: 5mph
Humidity: 93%   Direction: 200°SSW
Pressure: 30.07"   Gusts: NA
Location:  36.13°N, 90.16°W
Report Text: KHKA 250553Z AUTO 20004KT 10SM CLR 14/13 A3007 RMK AO2 SLP181 T01390128 10178 20139 402440061 58003
Loading
Personal Weather Stations






























Interactive Weather Map
Tropical Storm Tracking
New forecast layout! Learn more

10-Day Weather Forecast

Advertisements
Track Severe Weather on mobile